Lady Sandals — ZCYV2 — position and weather

sailwx.info

Track history (hours):
 
Tides and Currents Weather Stations Pressure Air Temp Water Temp Dewpoint Dewpoint Depression Visibility Wind Speed Wind Dir Waves Ship Positions

Lady Sandals

Last reported at 2017-Sep-16 04:40 UTC. Time now 2017-Sep-23 02:29 UTC.
Position N 26°07' W 080°06'.

Length 40 m; draft 2.5 m.

Type: Ship. MMSI: 319010600.

Date/timePositionNaut miles runAvg speedWind from/ knotsBaromVisibWave heightAir tempDewpointWater temp
2017-Sep-16 04:40N 26°07' W 080°06'0 0.1
2017-Sep-16 04:30N 26°07' W 080°06'2 3.4
2017-Sep-16 04:01N 26°06' W 080°05'612.2
2017-Sep-16 03:29N 26°12' W 080°04'4112.0
2017-Sep-16 00:04N 26°53' W 080°02'111.6
2017-Sep-16 00:01N 26°54' W 080°02'611.3
2017-Sep-15 23:30N 26°59' W 080°04'  
2017-Sep-13 12:53N 36°53' W 075°57'513.0
2017-Sep-13 12:30N 36°57' W 076°00'16 0.8
2017-Sep-12 16:47N 36°51' W 076°19'1 5.0
2017-Sep-12 16:30N 36°51' W 076°17'  
2017-Sep-09 06:14N 36°51' W 076°17'  
2017-Sep-06 14:40N 26°11' W 080°02'213.4
2017-Sep-06 14:30N 26°09' W 080°03'510.0
2017-Sep-06 14:01N 26°06' W 080°07'  
Track history (hours):
 
Tides and Currents Weather Stations Pressure Air Temp Water Temp Dewpoint Dewpoint Depression Visibility Wind Speed Wind Dir Waves Ship Positions

Lady Sandals

Last reported at 2017-Sep-16 04:40 UTC. Time now 2017-Sep-23 02:29 UTC.
Position N 26°07' W 080°06'.

Length 40 m; draft 2.5 m.

Type: Ship. MMSI: 319010600.

Date/timePositionNaut miles runAvg speedWind from/ knotsBaromVisibWave heightAir tempDewpointWater temp
2017-Sep-16 04:40N 26°07' W 080°06'0 0.1
2017-Sep-16 04:30N 26°07' W 080°06'2 3.4
2017-Sep-16 04:01N 26°06' W 080°05'612.2
2017-Sep-16 03:29N 26°12' W 080°04'4112.0
2017-Sep-16 00:04N 26°53' W 080°02'111.6
2017-Sep-16 00:01N 26°54' W 080°02'611.3
2017-Sep-15 23:30N 26°59' W 080°04'  
2017-Sep-13 12:53N 36°53' W 075°57'513.0
2017-Sep-13 12:30N 36°57' W 076°00'16 0.8
2017-Sep-12 16:47N 36°51' W 076°19'1 5.0
2017-Sep-12 16:30N 36°51' W 076°17'  
2017-Sep-09 06:14N 36°51' W 076°17'  
2017-Sep-06 14:40N 26°11' W 080°02'213.4
2017-Sep-06 14:30N 26°09' W 080°03'510.0
2017-Sep-06 14:01N 26°06' W 080°07'  

Dump ship's entire track history